sensor_id;sensor_type;location;lat;lon;timestamp;P1;durP1;ratioP1;P2;durP2;ratioP2
14528;SDS011;7351;51.194;4.098;2022-08-03T00:01:44;10.25;;;5.65;;
14528;SDS011;7351;51.194;4.098;2022-08-03T00:04:11;9.90;;;5.50;;
14528;SDS011;7351;51.194;4.098;2022-08-03T00:06:38;11.10;;;5.28;;
14528;SDS011;7351;51.194;4.098;2022-08-03T00:09:05;13.20;;;4.93;;
14528;SDS011;7351;51.194;4.098;2022-08-03T00:11:33;8.43;;;4.87;;
14528;SDS011;7351;51.194;4.098;2022-08-03T00:14:00;12.70;;;3.95;;
14528;SDS011;7351;51.194;4.098;2022-08-03T00:16:27;11.15;;;4.85;;
14528;SDS011;7351;51.194;4.098;2022-08-03T00:18:56;14.10;;;4.63;;
14528;SDS011;7351;51.194;4.098;2022-08-03T00:21:23;5.20;;;3.97;;
14528;SDS011;7351;51.194;4.098;2022-08-03T00:23:50;11.07;;;4.05;;
14528;SDS011;7351;51.194;4.098;2022-08-03T00:26:17;10.13;;;4.18;;
14528;SDS011;7351;51.194;4.098;2022-08-03T00:28:44;5.77;;;3.67;;
14528;SDS011;7351;51.194;4.098;2022-08-03T00:31:11;12.18;;;4.57;;
14528;SDS011;7351;51.194;4.098;2022-08-03T00:33:38;8.88;;;4.10;;
14528;SDS011;7351;51.194;4.098;2022-08-03T00:36:07;10.90;;;5.50;;
14528;SDS011;7351;51.194;4.098;2022-08-03T00:38:34;8.15;;;4.35;;
14528;SDS011;7351;51.194;4.098;2022-08-03T00:41:02;8.13;;;4.77;;
14528;SDS011;7351;51.194;4.098;2022-08-03T00:43:29;9.25;;;4.05;;
14528;SDS011;7351;51.194;4.098;2022-08-03T00:45:56;12.48;;;4.38;;
14528;SDS011;7351;51.194;4.098;2022-08-03T00:48:24;12.02;;;4.25;;
14528;SDS011;7351;51.194;4.098;2022-08-03T00:50:51;8.20;;;4.05;;
14528;SDS011;7351;51.194;4.098;2022-08-03T00:53:20;10.50;;;4.50;;
14528;SDS011;7351;51.194;4.098;2022-08-03T00:55:48;10.00;;;4.75;;
14528;SDS011;7351;51.194;4.098;2022-08-03T00:58:15;9.83;;;4.40;;
14528;SDS011;7351;51.194;4.098;2022-08-03T01:00:42;7.45;;;4.25;;
14528;SDS011;7351;51.194;4.098;2022-08-03T01:03:12;5.97;;;4.37;;
14528;SDS011;7351;51.194;4.098;2022-08-03T01:05:43;9.07;;;3.53;;
14528;SDS011;7351;51.194;4.098;2022-08-03T01:08:21;6.87;;;4.50;;
14528;SDS011;7351;51.194;4.098;2022-08-03T01:10:56;13.60;;;4.70;;
14528;SDS011;7351;51.194;4.098;2022-08-03T01:13:33;14.32;;;4.80;;
14528;SDS011;7351;51.194;4.098;2022-08-03T01:16:11;9.23;;;3.78;;
14528;SDS011;7351;51.194;4.098;2022-08-03T01:18:45;9.60;;;4.07;;
14528;SDS011;7351;51.194;4.098;2022-08-03T01:21:19;6.77;;;3.90;;
14528;SDS011;7351;51.194;4.098;2022-08-03T01:23:55;10.52;;;4.25;;
14528;SDS011;7351;51.194;4.098;2022-08-03T01:26:41;5.93;;;4.47;;
14528;SDS011;7351;51.194;4.098;2022-08-03T01:32:17;7.82;;;3.55;;
14528;SDS011;7351;51.194;4.098;2022-08-03T01:34:47;11.13;;;4.83;;
14528;SDS011;7351;51.194;4.098;2022-08-03T01:37:21;13.17;;;4.20;;
14528;SDS011;7351;51.194;4.098;2022-08-03T01:39:53;10.97;;;5.17;;
14528;SDS011;7351;51.194;4.098;2022-08-03T01:42:23;11.37;;;4.33;;
14528;SDS011;7351;51.194;4.098;2022-08-03T01:44:53;12.50;;;4.33;;
14528;SDS011;7351;51.194;4.098;2022-08-03T01:47:23;11.00;;;4.90;;
14528;SDS011;7351;51.194;4.098;2022-08-03T01:49:52;13.53;;;4.00;;
14528;SDS011;7351;51.194;4.098;2022-08-03T01:52:22;8.02;;;4.05;;
14528;SDS011;7351;51.194;4.098;2022-08-03T01:54:50;7.67;;;3.73;;
14528;SDS011;7351;51.194;4.098;2022-08-03T01:57:18;8.32;;;4.18;;
14528;SDS011;7351;51.194;4.098;2022-08-03T01:59:47;7.07;;;3.77;;
14528;SDS011;7351;51.194;4.098;2022-08-03T02:02:17;7.23;;;4.00;;
14528;SDS011;7351;51.194;4.098;2022-08-03T02:04:46;8.50;;;3.33;;
14528;SDS011;7351;51.194;4.098;2022-08-03T02:07:14;12.57;;;5.27;;
14528;SDS011;7351;51.194;4.098;2022-08-03T02:09:43;7.87;;;4.47;;
14528;SDS011;7351;51.194;4.098;2022-08-03T02:12:12;12.03;;;4.40;;
14528;SDS011;7351;51.194;4.098;2022-08-03T02:14:42;6.33;;;4.10;;
14528;SDS011;7351;51.194;4.098;2022-08-03T02:17:11;5.90;;;3.67;;
14528;SDS011;7351;51.194;4.098;2022-08-03T02:19:40;9.70;;;3.70;;
14528;SDS011;7351;51.194;4.098;2022-08-03T02:22:09;10.87;;;3.93;;
14528;SDS011;7351;51.194;4.098;2022-08-03T02:24:38;9.27;;;4.03;;
14528;SDS011;7351;51.194;4.098;2022-08-03T02:27:07;13.37;;;4.33;;
14528;SDS011;7351;51.194;4.098;2022-08-03T02:29:40;7.90;;;4.13;;
14528;SDS011;7351;51.194;4.098;2022-08-03T02:32:13;11.83;;;4.63;;
14528;SDS011;7351;51.194;4.098;2022-08-03T02:34:47;7.73;;;4.33;;
14528;SDS011;7351;51.194;4.098;2022-08-03T02:37:18;8.57;;;4.10;;
14528;SDS011;7351;51.194;4.098;2022-08-03T02:39:46;11.10;;;4.37;;
14528;SDS011;7351;51.194;4.098;2022-08-03T02:42:17;7.60;;;4.50;;
14528;SDS011;7351;51.194;4.098;2022-08-03T02:44:48;7.57;;;4.03;;
14528;SDS011;7351;51.194;4.098;2022-08-03T02:47:18;6.20;;;4.40;;
14528;SDS011;7351;51.194;4.098;2022-08-03T02:49:48;12.10;;;4.10;;
14528;SDS011;7351;51.194;4.098;2022-08-03T02:52:16;8.73;;;4.47;;
14528;SDS011;7351;51.194;4.098;2022-08-03T02:54:45;4.23;;;3.63;;
14528;SDS011;7351;51.194;4.098;2022-08-03T02:57:15;10.60;;;3.43;;
14528;SDS011;7351;51.194;4.098;2022-08-03T02:59:43;11.77;;;3.37;;
14528;SDS011;7351;51.194;4.098;2022-08-03T03:02:11;2.63;;;2.43;;
14528;SDS011;7351;51.194;4.098;2022-08-03T03:04:40;9.90;;;3.23;;
14528;SDS011;7351;51.194;4.098;2022-08-03T03:07:11;5.97;;;3.20;;
14528;SDS011;7351;51.194;4.098;2022-08-03T03:09:39;6.23;;;2.80;;
14528;SDS011;7351;51.194;4.098;2022-08-03T03:12:07;7.10;;;3.20;;
14528;SDS011;7351;51.194;4.098;2022-08-03T03:14:36;6.60;;;3.50;;
14528;SDS011;7351;51.194;4.098;2022-08-03T03:17:04;5.90;;;2.60;;
14528;SDS011;7351;51.194;4.098;2022-08-03T03:19:32;3.27;;;2.40;;
14528;SDS011;7351;51.194;4.098;2022-08-03T03:22:00;4.23;;;3.13;;
14528;SDS011;7351;51.194;4.098;2022-08-03T03:24:30;4.03;;;2.67;;
14528;SDS011;7351;51.194;4.098;2022-08-03T03:26:57;6.53;;;2.70;;
14528;SDS011;7351;51.194;4.098;2022-08-03T03:29:25;7.90;;;3.13;;
14528;SDS011;7351;51.194;4.098;2022-08-03T03:31:53;10.73;;;3.47;;
14528;SDS011;7351;51.194;4.098;2022-08-03T03:34:21;5.47;;;3.03;;
14528;SDS011;7351;51.194;4.098;2022-08-03T03:36:49;5.33;;;4.07;;
14528;SDS011;7351;51.194;4.098;2022-08-03T03:39:16;8.17;;;3.70;;
14528;SDS011;7351;51.194;4.098;2022-08-03T03:41:45;6.53;;;3.33;;
14528;SDS011;7351;51.194;4.098;2022-08-03T03:44:12;4.47;;;2.70;;
14528;SDS011;7351;51.194;4.098;2022-08-03T03:46:39;6.57;;;3.03;;
14528;SDS011;7351;51.194;4.098;2022-08-03T03:49:06;3.80;;;3.37;;
14528;SDS011;7351;51.194;4.098;2022-08-03T03:51:33;8.57;;;3.57;;
14528;SDS011;7351;51.194;4.098;2022-08-03T03:54:01;8.27;;;3.97;;
14528;SDS011;7351;51.194;4.098;2022-08-03T03:56:29;8.83;;;4.77;;
14528;SDS011;7351;51.194;4.098;2022-08-03T03:58:58;4.90;;;2.80;;
14528;SDS011;7351;51.194;4.098;2022-08-03T04:01:25;6.00;;;2.77;;
14528;SDS011;7351;51.194;4.098;2022-08-03T04:03:52;5.13;;;2.93;;
14528;SDS011;7351;51.194;4.098;2022-08-03T04:06:19;5.80;;;3.40;;
14528;SDS011;7351;51.194;4.098;2022-08-03T04:09:03;6.13;;;3.10;;
14528;SDS011;7351;51.194;4.098;2022-08-03T04:12:00;5.77;;;3.23;;
14528;SDS011;7351;51.194;4.098;2022-08-03T04:14:32;6.63;;;3.10;;
14528;SDS011;7351;51.194;4.098;2022-08-03T04:17:01;3.73;;;2.80;;
14528;SDS011;7351;51.194;4.098;2022-08-03T04:19:39;8.37;;;3.27;;
14528;SDS011;7351;51.194;4.098;2022-08-03T04:22:10;5.77;;;3.80;;
14528;SDS011;7351;51.194;4.098;2022-08-03T04:24:40;3.53;;;2.77;;
14528;SDS011;7351;51.194;4.098;2022-08-03T04:27:13;4.37;;;2.77;;
14528;SDS011;7351;51.194;4.098;2022-08-03T04:29:44;8.27;;;4.00;;
14528;SDS011;7351;51.194;4.098;2022-08-03T04:32:13;6.90;;;2.80;;
14528;SDS011;7351;51.194;4.098;2022-08-03T04:34:41;4.90;;;2.60;;
14528;SDS011;7351;51.194;4.098;2022-08-03T04:37:09;7.57;;;3.53;;
14528;SDS011;7351;51.194;4.098;2022-08-03T04:39:38;8.07;;;3.40;;
14528;SDS011;7351;51.194;4.098;2022-08-03T04:42:08;6.50;;;3.43;;
14528;SDS011;7351;51.194;4.098;2022-08-03T04:44:39;10.50;;;4.07;;
14528;SDS011;7351;51.194;4.098;2022-08-03T04:47:09;5.80;;;3.27;;
14528;SDS011;7351;51.194;4.098;2022-08-03T04:49:36;6.73;;;4.03;;
14528;SDS011;7351;51.194;4.098;2022-08-03T04:52:06;8.20;;;3.27;;
14528;SDS011;7351;51.194;4.098;2022-08-03T04:54:38;8.63;;;5.07;;
14528;SDS011;7351;51.194;4.098;2022-08-03T04:57:05;6.00;;;3.77;;
14528;SDS011;7351;51.194;4.098;2022-08-03T04:59:32;9.70;;;4.20;;
14528;SDS011;7351;51.194;4.098;2022-08-03T05:01:59;8.53;;;3.93;;
14528;SDS011;7351;51.194;4.098;2022-08-03T05:04:28;8.83;;;3.93;;
14528;SDS011;7351;51.194;4.098;2022-08-03T05:06:55;6.60;;;2.90;;
14528;SDS011;7351;51.194;4.098;2022-08-03T05:09:22;8.67;;;3.47;;
14528;SDS011;7351;51.194;4.098;2022-08-03T05:11:49;7.53;;;2.93;;
14528;SDS011;7351;51.194;4.098;2022-08-03T05:14:16;8.83;;;3.77;;
14528;SDS011;7351;51.194;4.098;2022-08-03T05:16:43;5.00;;;3.37;;
14528;SDS011;7351;51.194;4.098;2022-08-03T05:19:10;9.97;;;5.27;;
14528;SDS011;7351;51.194;4.098;2022-08-03T05:21:39;9.33;;;3.30;;
14528;SDS011;7351;51.194;4.098;2022-08-03T05:24:05;7.97;;;3.60;;
14528;SDS011;7351;51.194;4.098;2022-08-03T05:26:32;6.97;;;3.20;;
14528;SDS011;7351;51.194;4.098;2022-08-03T05:28:59;9.20;;;3.50;;
14528;SDS011;7351;51.194;4.098;2022-08-03T05:31:26;8.87;;;3.13;;
14528;SDS011;7351;51.194;4.098;2022-08-03T05:33:53;6.63;;;2.53;;
14528;SDS011;7351;51.194;4.098;2022-08-03T05:36:21;4.23;;;2.77;;
14528;SDS011;7351;51.194;4.098;2022-08-03T05:38:50;11.53;;;2.93;;
14528;SDS011;7351;51.194;4.098;2022-08-03T05:41:17;6.53;;;3.00;;
14528;SDS011;7351;51.194;4.098;2022-08-03T05:43:44;9.17;;;4.07;;
14528;SDS011;7351;51.194;4.098;2022-08-03T05:46:11;10.27;;;4.27;;
14528;SDS011;7351;51.194;4.098;2022-08-03T05:48:38;6.03;;;3.30;;
14528;SDS011;7351;51.194;4.098;2022-08-03T05:51:06;8.97;;;3.63;;
14528;SDS011;7351;51.194;4.098;2022-08-03T05:53:35;8.90;;;2.67;;
14528;SDS011;7351;51.194;4.098;2022-08-03T05:56:04;9.60;;;3.03;;
14528;SDS011;7351;51.194;4.098;2022-08-03T05:58:31;4.33;;;2.47;;
14528;SDS011;7351;51.194;4.098;2022-08-03T06:00:58;13.10;;;3.40;;
14528;SDS011;7351;51.194;4.098;2022-08-03T06:03:25;7.70;;;3.00;;
14528;SDS011;7351;51.194;4.098;2022-08-03T06:05:53;9.40;;;3.27;;
14528;SDS011;7351;51.194;4.098;2022-08-03T06:08:20;11.43;;;3.67;;
14528;SDS011;7351;51.194;4.098;2022-08-03T06:10:47;8.30;;;3.80;;
14528;SDS011;7351;51.194;4.098;2022-08-03T06:13:16;5.90;;;2.80;;
14528;SDS011;7351;51.194;4.098;2022-08-03T06:15:43;8.63;;;3.50;;
14528;SDS011;7351;51.194;4.098;2022-08-03T06:18:09;6.10;;;2.58;;
14528;SDS011;7351;51.194;4.098;2022-08-03T06:20:36;9.35;;;3.22;;
14528;SDS011;7351;51.194;4.098;2022-08-03T06:23:03;7.43;;;2.78;;
14528;SDS011;7351;51.194;4.098;2022-08-03T06:25:30;10.15;;;3.15;;
14528;SDS011;7351;51.194;4.098;2022-08-03T06:27:57;5.38;;;2.53;;
14528;SDS011;7351;51.194;4.098;2022-08-03T06:30:26;6.72;;;3.20;;
14528;SDS011;7351;51.194;4.098;2022-08-03T06:32:53;3.75;;;2.38;;
14528;SDS011;7351;51.194;4.098;2022-08-03T06:35:20;8.25;;;2.58;;
14528;SDS011;7351;51.194;4.098;2022-08-03T06:37:48;7.15;;;3.42;;
14528;SDS011;7351;51.194;4.098;2022-08-03T06:40:17;14.75;;;2.63;;
14528;SDS011;7351;51.194;4.098;2022-08-03T06:42:47;10.18;;;2.60;;
14528;SDS011;7351;51.194;4.098;2022-08-03T06:45:14;7.22;;;2.53;;
14528;SDS011;7351;51.194;4.098;2022-08-03T06:47:42;5.38;;;2.55;;
14528;SDS011;7351;51.194;4.098;2022-08-03T06:50:09;11.73;;;3.42;;
14528;SDS011;7351;51.194;4.098;2022-08-03T06:52:36;11.65;;;3.13;;
14528;SDS011;7351;51.194;4.098;2022-08-03T06:55:04;8.07;;;3.17;;
14528;SDS011;7351;51.194;4.098;2022-08-03T06:57:32;8.98;;;3.45;;
14528;SDS011;7351;51.194;4.098;2022-08-03T06:59:59;5.05;;;2.13;;
14528;SDS011;7351;51.194;4.098;2022-08-03T07:02:27;4.97;;;2.50;;
14528;SDS011;7351;51.194;4.098;2022-08-03T07:04:55;14.30;;;4.03;;
14528;SDS011;7351;51.194;4.098;2022-08-03T07:07:22;6.80;;;2.65;;
14528;SDS011;7351;51.194;4.098;2022-08-03T07:09:49;8.80;;;2.45;;
14528;SDS011;7351;51.194;4.098;2022-08-03T07:12:16;10.95;;;2.85;;
14528;SDS011;7351;51.194;4.098;2022-08-03T07:14:43;6.50;;;3.38;;
14528;SDS011;7351;51.194;4.098;2022-08-03T07:17:11;7.55;;;3.58;;
14528;SDS011;7351;51.194;4.098;2022-08-03T07:19:38;6.57;;;4.03;;
14528;SDS011;7351;51.194;4.098;2022-08-03T07:22:06;12.90;;;3.08;;
14528;SDS011;7351;51.194;4.098;2022-08-03T07:24:33;7.30;;;2.75;;
14528;SDS011;7351;51.194;4.098;2022-08-03T07:27:00;6.32;;;2.70;;
14528;SDS011;7351;51.194;4.098;2022-08-03T07:29:27;7.25;;;2.63;;
14528;SDS011;7351;51.194;4.098;2022-08-03T07:31:54;8.45;;;2.28;;
14528;SDS011;7351;51.194;4.098;2022-08-03T07:34:21;6.85;;;3.03;;
14528;SDS011;7351;51.194;4.098;2022-08-03T07:36:49;6.95;;;2.53;;
14528;SDS011;7351;51.194;4.098;2022-08-03T07:39:17;9.93;;;2.40;;
14528;SDS011;7351;51.194;4.098;2022-08-03T07:41:44;9.40;;;3.80;;
14528;SDS011;7351;51.194;4.098;2022-08-03T07:44:14;9.00;;;2.75;;
14528;SDS011;7351;51.194;4.098;2022-08-03T07:46:41;5.72;;;2.63;;
14528;SDS011;7351;51.194;4.098;2022-08-03T07:49:08;9.27;;;2.90;;
14528;SDS011;7351;51.194;4.098;2022-08-03T07:51:35;6.40;;;2.83;;
14528;SDS011;7351;51.194;4.098;2022-08-03T07:54:02;10.25;;;2.97;;
14528;SDS011;7351;51.194;4.098;2022-08-03T07:56:31;7.13;;;3.47;;
14528;SDS011;7351;51.194;4.098;2022-08-03T07:58:58;4.70;;;1.90;;
14528;SDS011;7351;51.194;4.098;2022-08-03T08:01:26;8.02;;;2.88;;
14528;SDS011;7351;51.194;4.098;2022-08-03T08:03:54;9.02;;;3.58;;
14528;SDS011;7351;51.194;4.098;2022-08-03T08:06:21;8.07;;;2.70;;
14528;SDS011;7351;51.194;4.098;2022-08-03T08:08:48;11.23;;;2.83;;
14528;SDS011;7351;51.194;4.098;2022-08-03T08:11:15;6.57;;;3.65;;
14528;SDS011;7351;51.194;4.098;2022-08-03T08:13:43;8.60;;;3.58;;
14528;SDS011;7351;51.194;4.098;2022-08-03T08:16:10;10.00;;;3.35;;
14528;SDS011;7351;51.194;4.098;2022-08-03T08:18:37;4.53;;;3.13;;
14528;SDS011;7351;51.194;4.098;2022-08-03T08:21:04;12.15;;;3.33;;
14528;SDS011;7351;51.194;4.098;2022-08-03T08:23:31;6.28;;;2.78;;
14528;SDS011;7351;51.194;4.098;2022-08-03T08:25:58;10.27;;;3.85;;
14528;SDS011;7351;51.194;4.098;2022-08-03T08:28:25;9.70;;;5.07;;
14528;SDS011;7351;51.194;4.098;2022-08-03T08:30:53;6.40;;;3.00;;
14528;SDS011;7351;51.194;4.098;2022-08-03T08:33:20;8.85;;;2.95;;
14528;SDS011;7351;51.194;4.098;2022-08-03T08:35:47;12.10;;;3.40;;
14528;SDS011;7351;51.194;4.098;2022-08-03T08:38:14;5.03;;;3.10;;
14528;SDS011;7351;51.194;4.098;2022-08-03T08:40:41;13.85;;;3.85;;
14528;SDS011;7351;51.194;4.098;2022-08-03T08:43:08;8.90;;;3.45;;
14528;SDS011;7351;51.194;4.098;2022-08-03T08:45:35;6.28;;;3.25;;
14528;SDS011;7351;51.194;4.098;2022-08-03T08:48:04;9.43;;;3.55;;
14528;SDS011;7351;51.194;4.098;2022-08-03T08:50:33;12.23;;;3.50;;
14528;SDS011;7351;51.194;4.098;2022-08-03T08:53:02;9.43;;;3.05;;
14528;SDS011;7351;51.194;4.098;2022-08-03T08:55:32;11.52;;;2.95;;
14528;SDS011;7351;51.194;4.098;2022-08-03T08:58:00;10.90;;;3.55;;
14528;SDS011;7351;51.194;4.098;2022-08-03T09:00:30;11.10;;;3.08;;
14528;SDS011;7351;51.194;4.098;2022-08-03T09:02:57;11.60;;;3.13;;
14528;SDS011;7351;51.194;4.098;2022-08-03T09:05:27;14.20;;;4.10;;
14528;SDS011;7351;51.194;4.098;2022-08-03T09:07:56;8.30;;;4.18;;
14528;SDS011;7351;51.194;4.098;2022-08-03T09:10:24;10.10;;;3.78;;
14528;SDS011;7351;51.194;4.098;2022-08-03T09:12:51;7.60;;;3.63;;
14528;SDS011;7351;51.194;4.098;2022-08-03T09:15:19;10.63;;;3.55;;
14528;SDS011;7351;51.194;4.098;2022-08-03T09:17:48;8.43;;;3.13;;
14528;SDS011;7351;51.194;4.098;2022-08-03T09:20:16;9.52;;;2.83;;
14528;SDS011;7351;51.194;4.098;2022-08-03T09:22:52;14.00;;;3.00;;
14528;SDS011;7351;51.194;4.098;2022-08-03T09:25:28;10.18;;;2.88;;
14528;SDS011;7351;51.194;4.098;2022-08-03T09:28:03;9.10;;;3.15;;
14528;SDS011;7351;51.194;4.098;2022-08-03T09:30:35;10.52;;;2.70;;
14528;SDS011;7351;51.194;4.098;2022-08-03T09:33:04;9.80;;;3.35;;
14528;SDS011;7351;51.194;4.098;2022-08-03T09:35:32;6.53;;;2.92;;
14528;SDS011;7351;51.194;4.098;2022-08-03T09:38:22;7.40;;;3.63;;
14528;SDS011;7351;51.194;4.098;2022-08-03T09:40:50;7.65;;;2.92;;
14528;SDS011;7351;51.194;4.098;2022-08-03T09:43:19;9.35;;;3.17;;
14528;SDS011;7351;51.194;4.098;2022-08-03T09:45:46;10.32;;;4.15;;
14528;SDS011;7351;51.194;4.098;2022-08-03T09:48:19;9.77;;;3.47;;
14528;SDS011;7351;51.194;4.098;2022-08-03T09:50:48;10.07;;;3.95;;
14528;SDS011;7351;51.194;4.098;2022-08-03T09:53:17;5.25;;;2.80;;
14528;SDS011;7351;51.194;4.098;2022-08-03T09:55:55;9.88;;;2.55;;
14528;SDS011;7351;51.194;4.098;2022-08-03T09:58:24;7.80;;;3.75;;
14528;SDS011;7351;51.194;4.098;2022-08-03T10:00:52;10.57;;;3.30;;
14528;SDS011;7351;51.194;4.098;2022-08-03T10:03:21;6.75;;;2.45;;
14528;SDS011;7351;51.194;4.098;2022-08-03T10:05:48;6.50;;;3.22;;
14528;SDS011;7351;51.194;4.098;2022-08-03T10:08:18;7.28;;;2.92;;
14528;SDS011;7351;51.194;4.098;2022-08-03T10:10:46;11.57;;;2.88;;
14528;SDS011;7351;51.194;4.098;2022-08-03T10:13:18;9.68;;;3.10;;
14528;SDS011;7351;51.194;4.098;2022-08-03T10:15:45;6.25;;;2.10;;
14528;SDS011;7351;51.194;4.098;2022-08-03T10:18:13;4.68;;;3.22;;
14528;SDS011;7351;51.194;4.098;2022-08-03T10:20:43;6.05;;;2.70;;
14528;SDS011;7351;51.194;4.098;2022-08-03T10:23:15;7.22;;;2.28;;
14528;SDS011;7351;51.194;4.098;2022-08-03T10:25:46;12.63;;;2.30;;
14528;SDS011;7351;51.194;4.098;2022-08-03T10:28:17;11.25;;;3.28;;
14528;SDS011;7351;51.194;4.098;2022-08-03T10:30:47;9.55;;;2.15;;
14528;SDS011;7351;51.194;4.098;2022-08-03T10:33:17;10.30;;;2.72;;
14528;SDS011;7351;51.194;4.098;2022-08-03T10:35:45;7.35;;;2.67;;
14528;SDS011;7351;51.194;4.098;2022-08-03T10:38:21;9.55;;;3.17;;
14528;SDS011;7351;51.194;4.098;2022-08-03T10:40:52;4.38;;;2.30;;
14528;SDS011;7351;51.194;4.098;2022-08-03T10:43:21;6.95;;;2.60;;
14528;SDS011;7351;51.194;4.098;2022-08-03T10:45:52;7.65;;;2.78;;
14528;SDS011;7351;51.194;4.098;2022-08-03T10:48:21;5.32;;;2.90;;
14528;SDS011;7351;51.194;4.098;2022-08-03T10:50:48;8.23;;;3.28;;
14528;SDS011;7351;51.194;4.098;2022-08-03T10:53:16;6.57;;;3.08;;
14528;SDS011;7351;51.194;4.098;2022-08-03T10:56:02;5.72;;;2.00;;
14528;SDS011;7351;51.194;4.098;2022-08-03T10:58:48;6.90;;;2.55;;
14528;SDS011;7351;51.194;4.098;2022-08-03T11:01:16;6.07;;;1.85;;
14528;SDS011;7351;51.194;4.098;2022-08-03T11:09:46;3.25;;;2.30;;
14528;SDS011;7351;51.194;4.098;2022-08-03T11:12:20;6.78;;;2.08;;
14528;SDS011;7351;51.194;4.098;2022-08-03T11:14:48;5.88;;;2.42;;
14528;SDS011;7351;51.194;4.098;2022-08-03T11:17:15;11.25;;;3.42;;
14528;SDS011;7351;51.194;4.098;2022-08-03T11:19:44;3.45;;;2.03;;
14528;SDS011;7351;51.194;4.098;2022-08-03T11:22:12;7.53;;;2.60;;
14528;SDS011;7351;51.194;4.098;2022-08-03T11:25:01;4.75;;;2.40;;
14528;SDS011;7351;51.194;4.098;2022-08-03T11:27:30;4.60;;;2.25;;
14528;SDS011;7351;51.194;4.098;2022-08-03T11:30:00;5.22;;;2.38;;
14528;SDS011;7351;51.194;4.098;2022-08-03T11:35:21;2.55;;;1.30;;
14528;SDS011;7351;51.194;4.098;2022-08-03T11:40:51;6.20;;;2.55;;
14528;SDS011;7351;51.194;4.098;2022-08-03T11:46:12;5.93;;;1.63;;
14528;SDS011;7351;51.194;4.098;2022-08-03T11:48:44;4.18;;;1.73;;
14528;SDS011;7351;51.194;4.098;2022-08-03T11:51:19;7.47;;;2.30;;
14528;SDS011;7351;51.194;4.098;2022-08-03T11:53:50;7.53;;;1.88;;
14528;SDS011;7351;51.194;4.098;2022-08-03T11:56:21;4.45;;;1.85;;
14528;SDS011;7351;51.194;4.098;2022-08-03T11:58:49;3.38;;;1.63;;
14528;SDS011;7351;51.194;4.098;2022-08-03T12:01:19;6.00;;;1.95;;
14528;SDS011;7351;51.194;4.098;2022-08-03T12:03:49;2.10;;;1.90;;
14528;SDS011;7351;51.194;4.098;2022-08-03T12:06:17;4.43;;;1.88;;
14528;SDS011;7351;51.194;4.098;2022-08-03T12:08:45;5.43;;;2.25;;
14528;SDS011;7351;51.194;4.098;2022-08-03T12:11:12;6.05;;;2.47;;
14528;SDS011;7351;51.194;4.098;2022-08-03T12:13:42;6.50;;;2.05;;
14528;SDS011;7351;51.194;4.098;2022-08-03T12:16:16;6.45;;;2.00;;
14528;SDS011;7351;51.194;4.098;2022-08-03T12:18:44;3.70;;;2.15;;
14528;SDS011;7351;51.194;4.098;2022-08-03T12:21:11;6.00;;;2.00;;
14528;SDS011;7351;51.194;4.098;2022-08-03T12:23:38;3.80;;;2.30;;
14528;SDS011;7351;51.194;4.098;2022-08-03T12:26:06;6.38;;;1.95;;
14528;SDS011;7351;51.194;4.098;2022-08-03T12:28:35;6.72;;;1.50;;
14528;SDS011;7351;51.194;4.098;2022-08-03T12:31:04;8.32;;;2.10;;
14528;SDS011;7351;51.194;4.098;2022-08-03T12:36:22;4.80;;;2.00;;
14528;SDS011;7351;51.194;4.098;2022-08-03T12:38:53;3.15;;;1.25;;
14528;SDS011;7351;51.194;4.098;2022-08-03T12:41:26;3.95;;;1.70;;
14528;SDS011;7351;51.194;4.098;2022-08-03T12:43:56;2.45;;;1.50;;
14528;SDS011;7351;51.194;4.098;2022-08-03T12:46:28;2.55;;;1.70;;
14528;SDS011;7351;51.194;4.098;2022-08-03T12:54:28;6.32;;;1.38;;
14528;SDS011;7351;51.194;4.098;2022-08-03T12:56:57;3.30;;;1.92;;
14528;SDS011;7351;51.194;4.098;2022-08-03T12:59:26;6.07;;;1.95;;
14528;SDS011;7351;51.194;4.098;2022-08-03T13:01:55;2.42;;;1.60;;
14528;SDS011;7351;51.194;4.098;2022-08-03T13:04:25;3.05;;;1.70;;
14528;SDS011;7351;51.194;4.098;2022-08-03T13:06:57;3.00;;;1.52;;
14528;SDS011;7351;51.194;4.098;2022-08-03T13:09:25;6.93;;;1.85;;
14528;SDS011;7351;51.194;4.098;2022-08-03T13:12:06;2.10;;;1.77;;
14528;SDS011;7351;51.194;4.098;2022-08-03T13:14:34;1.70;;;1.17;;
14528;SDS011;7351;51.194;4.098;2022-08-03T13:17:02;6.72;;;1.58;;
14528;SDS011;7351;51.194;4.098;2022-08-03T13:19:31;7.68;;;2.20;;
14528;SDS011;7351;51.194;4.098;2022-08-03T13:21:58;2.50;;;1.35;;
14528;SDS011;7351;51.194;4.098;2022-08-03T13:24:26;4.30;;;2.03;;
14528;SDS011;7351;51.194;4.098;2022-08-03T13:26:54;4.65;;;1.98;;
14528;SDS011;7351;51.194;4.098;2022-08-03T13:29:21;3.65;;;1.77;;
14528;SDS011;7351;51.194;4.098;2022-08-03T13:31:48;3.72;;;1.17;;
14528;SDS011;7351;51.194;4.098;2022-08-03T13:34:16;4.03;;;1.52;;
14528;SDS011;7351;51.194;4.098;2022-08-03T13:36:44;4.32;;;1.27;;
14528;SDS011;7351;51.194;4.098;2022-08-03T13:39:11;3.78;;;1.30;;
14528;SDS011;7351;51.194;4.098;2022-08-03T13:41:37;3.53;;;1.63;;
14528;SDS011;7351;51.194;4.098;2022-08-03T13:44:04;5.70;;;1.70;;
14528;SDS011;7351;51.194;4.098;2022-08-03T13:46:31;2.03;;;1.52;;
14528;SDS011;7351;51.194;4.098;2022-08-03T13:48:58;4.57;;;1.67;;
14528;SDS011;7351;51.194;4.098;2022-08-03T13:51:27;9.35;;;2.40;;
14528;SDS011;7351;51.194;4.098;2022-08-03T13:53:54;7.20;;;1.83;;
14528;SDS011;7351;51.194;4.098;2022-08-03T13:56:23;2.92;;;1.45;;
14528;SDS011;7351;51.194;4.098;2022-08-03T13:58:59;4.53;;;1.27;;
14528;SDS011;7351;51.194;4.098;2022-08-03T14:01:26;2.25;;;1.60;;
14528;SDS011;7351;51.194;4.098;2022-08-03T14:03:53;4.38;;;1.38;;
14528;SDS011;7351;51.194;4.098;2022-08-03T14:06:22;4.32;;;1.85;;
14528;SDS011;7351;51.194;4.098;2022-08-03T14:08:51;2.78;;;1.20;;
14528;SDS011;7351;51.194;4.098;2022-08-03T14:11:19;4.68;;;2.03;;
14528;SDS011;7351;51.194;4.098;2022-08-03T14:13:46;5.85;;;1.75;;
14528;SDS011;7351;51.194;4.098;2022-08-03T14:16:13;4.47;;;1.73;;
14528;SDS011;7351;51.194;4.098;2022-08-03T14:18:40;7.88;;;2.13;;
14528;SDS011;7351;51.194;4.098;2022-08-03T14:21:07;1.67;;;1.58;;
14528;SDS011;7351;51.194;4.098;2022-08-03T14:23:34;2.92;;;1.63;;
14528;SDS011;7351;51.194;4.098;2022-08-03T14:26:04;2.97;;;1.73;;
14528;SDS011;7351;51.194;4.098;2022-08-03T14:28:31;3.50;;;1.48;;
14528;SDS011;7351;51.194;4.098;2022-08-03T14:30:59;3.42;;;1.13;;
14528;SDS011;7351;51.194;4.098;2022-08-03T14:33:27;2.17;;;1.20;;
14528;SDS011;7351;51.194;4.098;2022-08-03T14:35:54;3.65;;;1.55;;
14528;SDS011;7351;51.194;4.098;2022-08-03T14:38:21;6.60;;;3.13;;
14528;SDS011;7351;51.194;4.098;2022-08-03T14:40:49;4.38;;;2.08;;
14528;SDS011;7351;51.194;4.098;2022-08-03T14:43:21;1.65;;;1.25;;
14528;SDS011;7351;51.194;4.098;2022-08-03T14:45:48;2.13;;;1.27;;
14528;SDS011;7351;51.194;4.098;2022-08-03T14:48:16;2.58;;;1.80;;
14528;SDS011;7351;51.194;4.098;2022-08-03T14:50:43;2.95;;;1.17;;
14528;SDS011;7351;51.194;4.098;2022-08-03T14:53:10;2.50;;;1.80;;
14528;SDS011;7351;51.194;4.098;2022-08-03T14:55:37;2.72;;;1.50;;
14528;SDS011;7351;51.194;4.098;2022-08-03T14:58:04;2.50;;;1.38;;
14528;SDS011;7351;51.194;4.098;2022-08-03T15:00:33;3.40;;;1.65;;
14528;SDS011;7351;51.194;4.098;2022-08-03T15:03:01;4.65;;;1.50;;
14528;SDS011;7351;51.194;4.098;2022-08-03T15:05:28;3.42;;;1.63;;
14528;SDS011;7351;51.194;4.098;2022-08-03T15:07:55;1.20;;;1.10;;
14528;SDS011;7351;51.194;4.098;2022-08-03T15:10:23;1.90;;;1.52;;
14528;SDS011;7351;51.194;4.098;2022-08-03T15:12:50;4.22;;;1.45;;
14528;SDS011;7351;51.194;4.098;2022-08-03T15:15:18;4.25;;;1.45;;
14528;SDS011;7351;51.194;4.098;2022-08-03T15:17:47;7.20;;;1.42;;
14528;SDS011;7351;51.194;4.098;2022-08-03T15:20:14;5.72;;;2.00;;
14528;SDS011;7351;51.194;4.098;2022-08-03T15:22:41;4.30;;;1.15;;
14528;SDS011;7351;51.194;4.098;2022-08-03T15:25:08;4.45;;;1.77;;
14528;SDS011;7351;51.194;4.098;2022-08-03T15:27:37;2.75;;;1.48;;
14528;SDS011;7351;51.194;4.098;2022-08-03T15:30:04;4.40;;;1.50;;
14528;SDS011;7351;51.194;4.098;2022-08-03T15:32:32;4.10;;;1.40;;
14528;SDS011;7351;51.194;4.098;2022-08-03T15:35:00;2.63;;;1.13;;